createdAt,value
2017-11-13T00:01:45.635Z,6.76
2017-11-13T00:04:13.032Z,6.75
2017-11-13T00:06:40.425Z,6.72
2017-11-13T00:09:07.803Z,6.67
2017-11-13T00:11:35.199Z,6.61
2017-11-13T00:14:02.627Z,6.61
2017-11-13T00:16:30.015Z,6.57
2017-11-13T00:18:57.395Z,6.54
2017-11-13T00:21:24.788Z,6.55
2017-11-13T00:23:52.171Z,6.58
2017-11-13T00:26:19.567Z,6.60
2017-11-13T00:28:46.960Z,6.55
2017-11-13T00:31:14.342Z,6.64
2017-11-13T00:33:41.737Z,6.62
2017-11-13T00:36:09.123Z,6.63
2017-11-13T00:38:36.513Z,6.54
2017-11-13T00:41:03.898Z,6.39
2017-11-13T00:43:31.297Z,6.53
2017-11-13T00:45:58.680Z,6.53
2017-11-13T00:48:26.108Z,6.51
2017-11-13T00:50:53.495Z,6.45
2017-11-13T00:53:20.881Z,6.47
2017-11-13T00:55:48.284Z,6.44
2017-11-13T00:58:15.669Z,6.38
2017-11-13T01:00:43.071Z,6.47
2017-11-13T01:03:10.460Z,6.44
2017-11-13T01:05:37.852Z,6.53
2017-11-13T01:08:05.243Z,6.50
2017-11-13T01:10:32.663Z,6.48
2017-11-13T01:13:00.050Z,6.47
2017-11-13T01:15:27.431Z,6.43
2017-11-13T01:17:54.824Z,6.49
2017-11-13T01:20:22.212Z,6.49
2017-11-13T01:22:49.602Z,6.58
2017-11-13T01:25:16.983Z,6.45
2017-11-13T01:27:44.384Z,6.44
2017-11-13T01:30:11.778Z,6.45
2017-11-13T01:32:39.171Z,6.49
2017-11-13T01:35:06.558Z,6.57
2017-11-13T01:37:33.946Z,6.45
2017-11-13T01:40:01.332Z,6.50
2017-11-13T01:42:28.723Z,6.51
2017-11-13T01:44:56.113Z,6.51
2017-11-13T01:47:23.511Z,6.38
2017-11-13T01:49:50.904Z,6.38
2017-11-13T01:52:18.291Z,6.32
2017-11-13T01:54:45.687Z,6.42
2017-11-13T01:57:13.080Z,6.36
2017-11-13T01:59:40.467Z,6.38
2017-11-13T02:02:07.855Z,6.42
2017-11-13T02:04:35.251Z,6.44
2017-11-13T02:07:02.638Z,6.42
2017-11-13T02:09:30.023Z,6.39
2017-11-13T02:11:57.423Z,6.48
2017-11-13T02:14:24.804Z,6.50
2017-11-13T02:16:52.232Z,6.45
2017-11-13T02:19:19.596Z,6.37
2017-11-13T02:21:46.988Z,6.39
2017-11-13T02:24:14.385Z,6.43
2017-11-13T02:26:41.767Z,6.49
2017-11-13T02:29:09.158Z,6.44
2017-11-13T02:31:36.546Z,6.43
2017-11-13T02:34:03.939Z,6.47
2017-11-13T02:36:31.323Z,6.33
2017-11-13T02:38:58.719Z,6.41
2017-11-13T02:41:26.107Z,6.45
2017-11-13T02:43:53.513Z,6.40
2017-11-13T02:46:20.908Z,6.45
2017-11-13T02:48:48.311Z,6.47
2017-11-13T02:51:15.695Z,6.36
2017-11-13T02:53:43.084Z,6.41
2017-11-13T02:56:10.476Z,6.36
2017-11-13T02:58:37.864Z,6.34
2017-11-13T03:01:05.265Z,6.24
2017-11-13T03:03:32.648Z,6.30
2017-11-13T03:06:00.035Z,6.39
2017-11-13T03:08:27.424Z,6.48
2017-11-13T03:10:54.811Z,6.40
2017-11-13T03:13:22.207Z,6.43
2017-11-13T03:15:49.594Z,6.42
2017-11-13T03:18:16.979Z,6.42
2017-11-13T03:20:44.363Z,6.39
2017-11-13T03:23:11.772Z,6.33
2017-11-13T03:25:39.160Z,6.34
2017-11-13T03:28:06.543Z,6.29
2017-11-13T03:30:33.946Z,6.25
2017-11-13T03:33:01.327Z,6.26
2017-11-13T03:35:28.723Z,6.39
2017-11-13T03:37:56.121Z,6.31
2017-11-13T03:40:23.507Z,6.29
2017-11-13T03:42:50.900Z,6.27
2017-11-13T03:45:18.296Z,6.21
2017-11-13T03:47:45.696Z,6.26
2017-11-13T03:50:13.071Z,6.34
2017-11-13T03:52:40.468Z,6.30
2017-11-13T03:55:07.855Z,6.23
2017-11-13T03:57:35.263Z,6.30
2017-11-13T04:00:02.659Z,6.32
2017-11-13T04:02:30.057Z,6.44
2017-11-13T04:04:57.444Z,6.42
2017-11-13T04:07:24.854Z,6.38
2017-11-13T04:09:52.239Z,6.38
2017-11-13T04:12:19.628Z,6.38
2017-11-13T04:14:47.049Z,6.24
2017-11-13T04:17:14.407Z,6.27
2017-11-13T04:19:41.811Z,6.31
2017-11-13T04:22:09.204Z,6.33
2017-11-13T04:24:36.599Z,6.33
2017-11-13T04:27:03.995Z,6.44
2017-11-13T04:29:31.403Z,6.51
2017-11-13T04:31:58.800Z,6.44
2017-11-13T04:34:26.183Z,6.40
2017-11-13T04:36:53.580Z,6.35
2017-11-13T04:39:20.991Z,6.43
2017-11-13T04:41:48.396Z,6.42
2017-11-13T04:44:15.786Z,6.38
2017-11-13T04:46:43.192Z,6.40
2017-11-13T04:49:10.604Z,6.40
2017-11-13T04:51:38.022Z,6.44
2017-11-13T04:54:05.416Z,6.43
2017-11-13T04:56:32.803Z,6.45
2017-11-13T04:59:00.932Z,6.50
2017-11-13T05:01:28.335Z,6.52
2017-11-13T05:03:55.731Z,6.51
2017-11-13T05:06:23.139Z,6.54
2017-11-13T05:08:50.539Z,6.53
2017-11-13T05:11:17.931Z,6.53
2017-11-13T05:13:45.382Z,6.57
2017-11-13T05:16:12.763Z,6.58
2017-11-13T05:18:40.185Z,6.58
2017-11-13T05:21:07.820Z,6.57
2017-11-13T05:23:35.215Z,6.57
2017-11-13T05:26:02.647Z,6.55
2017-11-13T05:28:30.030Z,6.53
2017-11-13T05:30:57.423Z,6.54
2017-11-13T05:33:24.820Z,6.55
2017-11-13T05:35:52.209Z,6.62
2017-11-13T05:38:19.606Z,6.58
2017-11-13T05:40:46.996Z,6.53
2017-11-13T05:43:14.391Z,6.47
2017-11-13T05:45:41.844Z,6.49
2017-11-13T05:48:09.244Z,6.51
2017-11-13T05:50:36.630Z,6.48
2017-11-13T05:53:04.020Z,6.42
2017-11-13T05:55:31.412Z,6.32
2017-11-13T05:57:58.807Z,6.24
2017-11-13T06:00:26.217Z,6.16
2017-11-13T06:02:53.604Z,6.14
2017-11-13T06:05:21.009Z,6.15
2017-11-13T06:07:48.394Z,6.20
2017-11-13T06:10:15.826Z,6.18
2017-11-13T06:12:43.224Z,6.11
2017-11-13T06:15:10.623Z,6.06
2017-11-13T06:17:38.024Z,6.09
2017-11-13T06:20:05.408Z,6.03
2017-11-13T06:22:32.807Z,6.01
2017-11-13T06:25:00.200Z,5.98
2017-11-13T06:27:27.603Z,5.95
2017-11-13T06:29:55.012Z,5.94
2017-11-13T06:32:22.415Z,5.94
2017-11-13T06:34:49.810Z,5.97
2017-11-13T06:37:17.196Z,5.98
2017-11-13T06:39:44.583Z,5.96
2017-11-13T06:42:11.978Z,5.96
2017-11-13T06:44:39.371Z,5.95
2017-11-13T06:47:06.743Z,5.97
2017-11-13T06:49:34.583Z,6.01
2017-11-13T06:52:01.998Z,6.09
2017-11-13T06:54:29.395Z,6.18
2017-11-13T06:56:56.783Z,6.26
2017-11-13T06:59:24.163Z,6.35
2017-11-13T07:01:51.561Z,6.41
2017-11-13T07:04:18.955Z,6.48
2017-11-13T07:06:46.352Z,6.52
2017-11-13T07:09:13.753Z,6.52
2017-11-13T07:11:41.156Z,6.62
2017-11-13T07:14:08.552Z,6.69
2017-11-13T07:16:35.940Z,6.72
2017-11-13T07:19:03.345Z,6.75
2017-11-13T07:21:30.735Z,6.81
2017-11-13T07:23:58.128Z,6.87
2017-11-13T07:26:25.515Z,6.92
2017-11-13T07:28:52.912Z,6.98
2017-11-13T07:31:20.307Z,7.01
2017-11-13T07:33:47.719Z,7.05
2017-11-13T07:36:15.099Z,7.08
2017-11-13T07:38:42.492Z,7.17
2017-11-13T07:41:09.892Z,7.19
2017-11-13T07:43:37.284Z,7.23
2017-11-13T07:46:04.680Z,7.27
2017-11-13T07:48:32.076Z,7.32
2017-11-13T07:50:59.488Z,7.18
2017-11-13T07:53:26.880Z,7.22
2017-11-13T07:55:54.267Z,7.26
2017-11-13T07:58:21.782Z,7.17
2017-11-13T08:00:49.155Z,7.23
2017-11-13T08:03:16.553Z,7.18
2017-11-13T08:05:43.947Z,7.24
2017-11-13T08:08:11.340Z,7.26
2017-11-13T08:10:38.731Z,7.38
2017-11-13T08:13:06.136Z,7.45
2017-11-13T08:15:33.527Z,7.40
2017-11-13T08:18:00.948Z,7.50
2017-11-13T08:20:28.335Z,7.55
2017-11-13T08:22:55.734Z,7.55
2017-11-13T08:25:23.119Z,7.48
2017-11-13T08:27:50.511Z,7.45
2017-11-13T08:30:17.912Z,7.47
2017-11-13T08:32:45.304Z,7.40
2017-11-13T08:35:12.704Z,7.59
2017-11-13T08:37:40.096Z,7.57
2017-11-13T08:40:07.495Z,7.60
2017-11-13T08:42:34.898Z,7.71
2017-11-13T08:45:02.282Z,7.76
2017-11-13T08:47:29.689Z,7.97
2017-11-13T08:49:57.067Z,7.99
2017-11-13T08:52:24.463Z,7.92
2017-11-13T08:54:51.852Z,7.76
2017-11-13T08:57:19.271Z,7.82
2017-11-13T08:59:46.663Z,7.95
2017-11-13T09:02:14.051Z,7.88
2017-11-13T09:04:41.453Z,7.78
2017-11-13T09:07:08.847Z,7.95
2017-11-13T09:09:36.252Z,8.03
2017-11-13T09:12:04.308Z,8.26
2017-11-13T09:14:31.700Z,8.38
2017-11-13T09:16:59.098Z,8.52
2017-11-13T09:19:26.483Z,8.44
2017-11-13T09:21:53.875Z,8.24
2017-11-13T09:24:21.263Z,8.30
2017-11-13T09:26:48.655Z,8.24
2017-11-13T09:29:16.048Z,8.04
2017-11-13T09:31:43.456Z,8.02
2017-11-13T09:34:10.853Z,7.93
2017-11-13T09:36:38.240Z,8.17
2017-11-13T09:39:05.640Z,8.27
2017-11-13T09:41:33.037Z,8.28
2017-11-13T09:44:00.436Z,8.57
2017-11-13T09:46:27.823Z,8.70
2017-11-13T09:48:55.228Z,8.88
2017-11-13T09:51:22.620Z,9.14
2017-11-13T09:53:50.015Z,9.07
2017-11-13T09:56:17.410Z,8.79
2017-11-13T09:58:44.801Z,8.55
2017-11-13T10:01:12.200Z,8.53
2017-11-13T10:03:39.622Z,8.78
2017-11-13T10:06:07.053Z,8.96
2017-11-13T10:08:34.444Z,8.92
2017-11-13T10:11:01.836Z,9.25
2017-11-13T10:13:29.228Z,9.51
2017-11-13T10:15:56.627Z,9.55
2017-11-13T10:18:24.029Z,9.40
2017-11-13T10:20:51.415Z,9.51
2017-11-13T10:23:18.815Z,9.89
2017-11-13T10:25:46.210Z,10.06
2017-11-13T10:28:13.788Z,10.23
2017-11-13T10:30:41.175Z,10.05
2017-11-13T10:33:08.563Z,9.74
2017-11-13T10:35:35.999Z,9.77
2017-11-13T10:38:03.370Z,9.93
2017-11-13T10:40:30.771Z,9.91
2017-11-13T10:42:58.170Z,10.06
2017-11-13T10:45:25.571Z,10.12
2017-11-13T10:47:52.965Z,10.07
2017-11-13T10:50:20.382Z,9.87
2017-11-13T10:52:47.762Z,9.80
2017-11-13T10:55:15.155Z,9.88
2017-11-13T10:57:42.560Z,10.16
2017-11-13T11:00:09.957Z,10.29
2017-11-13T11:02:37.352Z,10.28
2017-11-13T11:05:04.747Z,10.32
2017-11-13T11:07:32.162Z,10.29
2017-11-13T11:09:59.573Z,10.39
2017-11-13T11:12:31.413Z,10.32
2017-11-13T11:18:13.080Z,10.18
2017-11-13T11:20:40.476Z,9.84
2017-11-13T11:23:11.316Z,9.70
2017-11-13T11:29:04.180Z,9.83
2017-11-13T11:31:33.356Z,10.15
2017-11-13T11:34:00.756Z,10.34
2017-11-13T11:36:29.063Z,10.27
2017-11-13T11:38:56.470Z,10.41
2017-11-13T11:41:23.910Z,10.36
2017-11-13T11:43:51.307Z,10.14
2017-11-13T11:46:18.709Z,10.17
2017-11-13T11:48:46.105Z,10.37
2017-11-13T11:51:13.504Z,10.53
2017-11-13T11:53:40.900Z,10.64
2017-11-13T11:56:13.952Z,10.80
2017-11-13T11:58:41.352Z,10.80
2017-11-13T12:01:08.752Z,10.81
2017-11-13T12:03:36.148Z,10.79
2017-11-13T12:06:03.548Z,10.83
2017-11-13T12:08:30.935Z,10.92
2017-11-13T12:10:58.330Z,10.73
2017-11-13T12:13:25.731Z,10.66
2017-11-13T12:15:53.144Z,10.57
2017-11-13T12:18:20.535Z,10.59
2017-11-13T12:20:47.928Z,10.32
2017-11-13T12:23:15.332Z,10.14
2017-11-13T12:25:42.716Z,9.94
2017-11-13T12:28:10.112Z,10.01
2017-11-13T12:30:37.506Z,10.06
2017-11-13T12:33:04.909Z,10.17
2017-11-13T12:35:32.296Z,10.19
2017-11-13T12:37:59.712Z,10.31
2017-11-13T12:40:32.931Z,10.21
2017-11-13T12:43:00.323Z,10.15
2017-11-13T12:45:27.715Z,10.18
2017-11-13T12:47:55.122Z,10.24
2017-11-13T12:50:22.500Z,10.29
2017-11-13T12:52:49.887Z,10.11
2017-11-13T12:55:17.291Z,10.17
2017-11-13T12:57:44.682Z,10.21
2017-11-13T13:00:12.083Z,10.27
2017-11-13T13:02:39.479Z,10.19
2017-11-13T13:05:06.873Z,10.24
2017-11-13T13:07:34.267Z,10.26
2017-11-13T13:10:01.663Z,10.19
2017-11-13T13:12:29.065Z,10.22
2017-11-13T13:14:56.463Z,10.37
2017-11-13T13:17:23.867Z,10.69
2017-11-13T13:19:51.270Z,10.67
2017-11-13T13:22:18.671Z,10.75
2017-11-13T13:24:46.064Z,10.56
2017-11-13T13:27:13.472Z,10.42
2017-11-13T13:29:40.871Z,10.47
2017-11-13T13:32:08.267Z,10.48
2017-11-13T13:34:35.683Z,10.43
2017-11-13T13:37:03.071Z,10.35
2017-11-13T13:39:30.471Z,10.52
2017-11-13T13:41:57.863Z,10.74
2017-11-13T13:44:25.264Z,10.91
2017-11-13T13:46:52.659Z,11.06
2017-11-13T13:49:20.063Z,10.80
2017-11-13T13:51:47.461Z,10.93
2017-11-13T13:54:14.860Z,10.98
2017-11-13T13:56:42.274Z,11.03
2017-11-13T13:59:09.657Z,10.67
2017-11-13T14:01:37.059Z,10.77
2017-11-13T14:04:04.464Z,10.71
2017-11-13T14:06:31.855Z,10.71
2017-11-13T14:08:59.264Z,10.55
2017-11-13T14:11:26.664Z,10.41
2017-11-13T14:13:54.059Z,10.24
2017-11-13T14:16:21.454Z,10.24
2017-11-13T14:18:48.855Z,10.20
2017-11-13T14:21:16.255Z,10.29
2017-11-13T14:23:43.647Z,10.32
2017-11-13T14:26:11.044Z,10.31
2017-11-13T14:28:38.438Z,10.28
2017-11-13T14:31:05.861Z,10.39
2017-11-13T14:33:33.252Z,10.34
2017-11-13T14:36:00.641Z,10.40
2017-11-13T14:38:28.046Z,10.52
2017-11-13T14:40:55.432Z,10.45
2017-11-13T14:43:22.832Z,10.53
2017-11-13T14:45:50.228Z,10.64
2017-11-13T14:48:17.631Z,10.80
2017-11-13T14:50:45.035Z,10.71
2017-11-13T14:53:12.424Z,10.77
2017-11-13T14:55:39.808Z,10.75
2017-11-13T14:58:07.200Z,10.56
2017-11-13T15:00:34.608Z,10.44
2017-11-13T15:03:02.037Z,10.28
2017-11-13T15:05:29.725Z,10.10
2017-11-13T15:07:57.120Z,9.92
2017-11-13T15:10:24.532Z,9.90
2017-11-13T15:12:51.914Z,9.82
2017-11-13T15:15:19.304Z,9.79
2017-11-13T15:17:46.711Z,9.70
2017-11-13T15:20:14.109Z,9.59
2017-11-13T15:22:41.525Z,9.55
2017-11-13T15:25:08.929Z,9.57
2017-11-13T15:27:36.321Z,9.53
2017-11-13T15:30:03.729Z,9.54
2017-11-13T15:32:31.118Z,9.50
2017-11-13T15:34:58.515Z,9.47
2017-11-13T15:37:25.938Z,9.39
2017-11-13T15:39:53.340Z,9.24
2017-11-13T15:42:21.683Z,9.14
2017-11-13T15:44:49.080Z,9.05
2017-11-13T15:47:16.506Z,8.94
2017-11-13T15:49:43.894Z,8.94
2017-11-13T15:52:11.870Z,8.87
2017-11-13T15:54:39.239Z,8.91
2017-11-13T15:57:06.640Z,8.95
2017-11-13T15:59:34.031Z,9.01
2017-11-13T16:02:01.426Z,9.06
2017-11-13T16:04:28.819Z,9.09
2017-11-13T16:06:56.208Z,9.11
2017-11-13T16:09:23.595Z,9.11
2017-11-13T16:11:51.006Z,9.08
2017-11-13T16:14:24.191Z,9.05
2017-11-13T16:16:51.591Z,9.06
2017-11-13T16:19:18.982Z,9.13
2017-11-13T16:21:46.369Z,9.11
2017-11-13T16:24:13.764Z,9.09
2017-11-13T16:26:41.154Z,9.03
2017-11-13T16:29:08.556Z,9.04
2017-11-13T16:31:35.924Z,8.97
2017-11-13T16:34:03.321Z,8.96
2017-11-13T16:36:30.711Z,8.87
2017-11-13T16:38:58.108Z,8.89
2017-11-13T16:41:25.501Z,8.88
2017-11-13T16:43:52.879Z,8.84
2017-11-13T16:46:20.268Z,8.78
2017-11-13T16:48:47.655Z,8.78
2017-11-13T16:51:15.047Z,8.81
2017-11-13T16:53:42.444Z,8.78
2017-11-13T16:56:09.839Z,8.72
2017-11-13T16:58:37.227Z,8.69
2017-11-13T17:01:04.628Z,8.65
2017-11-13T17:03:32.015Z,8.61
2017-11-13T17:05:59.408Z,8.58
2017-11-13T17:08:26.806Z,8.68
2017-11-13T17:10:54.192Z,8.72
2017-11-13T17:13:21.587Z,8.64
2017-11-13T17:15:48.980Z,8.70
2017-11-13T17:18:16.371Z,8.71
2017-11-13T17:20:43.763Z,8.73
2017-11-13T17:23:11.170Z,8.73
2017-11-13T17:25:38.555Z,8.66
2017-11-13T17:28:05.945Z,8.64
2017-11-13T17:30:33.341Z,8.67
2017-11-13T17:33:00.736Z,8.67
2017-11-13T17:35:28.127Z,8.57
2017-11-13T17:37:55.511Z,8.57
2017-11-13T17:40:22.899Z,8.56
2017-11-13T17:42:50.284Z,8.58
2017-11-13T17:45:17.675Z,8.56
2017-11-13T17:47:45.083Z,8.49
2017-11-13T17:50:12.475Z,8.41
2017-11-13T17:52:39.863Z,8.34
2017-11-13T17:55:07.251Z,8.23
2017-11-13T17:57:34.639Z,8.23
2017-11-13T18:00:02.019Z,8.17
2017-11-13T18:02:29.423Z,8.12
2017-11-13T18:04:56.807Z,8.05
2017-11-13T18:07:24.219Z,7.99
2017-11-13T18:09:51.609Z,7.92
2017-11-13T18:12:18.995Z,7.91
2017-11-13T18:14:46.391Z,7.90
2017-11-13T18:17:13.778Z,7.83
2017-11-13T18:19:41.175Z,7.75
2017-11-13T18:22:08.554Z,7.70
2017-11-13T18:24:35.960Z,7.71
2017-11-13T18:27:03.346Z,7.66
2017-11-13T18:29:30.742Z,7.62
2017-11-13T18:31:58.135Z,7.60
2017-11-13T18:34:25.528Z,7.53
2017-11-13T18:36:52.921Z,7.35
2017-11-13T18:39:20.309Z,7.38
2017-11-13T18:41:47.719Z,7.41
2017-11-13T18:44:16.163Z,7.38
2017-11-13T18:46:43.562Z,7.31
2017-11-13T18:49:10.943Z,7.25
2017-11-13T18:51:39.105Z,7.15
2017-11-13T18:54:06.520Z,7.08
2017-11-13T18:56:33.903Z,6.99
2017-11-13T18:59:01.319Z,6.94
2017-11-13T19:01:36.420Z,6.88
2017-11-13T19:04:03.869Z,6.84
2017-11-13T19:06:32.094Z,6.80
2017-11-13T19:08:59.518Z,6.83
2017-11-13T19:11:26.897Z,6.89
2017-11-13T19:13:55.054Z,6.93
2017-11-13T19:16:22.451Z,6.95
2017-11-13T19:18:50.656Z,6.96
2017-11-13T19:21:18.097Z,6.94
2017-11-13T19:23:45.516Z,6.95
2017-11-13T19:26:13.026Z,6.97
2017-11-13T19:28:40.416Z,6.96
2017-11-13T19:31:20.690Z,6.93
2017-11-13T19:33:48.099Z,6.86
2017-11-13T19:36:15.493Z,6.80
2017-11-13T19:38:43.834Z,6.75
2017-11-13T19:41:11.240Z,6.68
2017-11-13T19:43:38.663Z,6.59
2017-11-13T19:46:06.055Z,6.51
2017-11-13T19:48:33.473Z,6.45
2017-11-13T19:51:00.869Z,6.39
2017-11-13T19:53:28.255Z,6.34
2017-11-13T19:55:55.654Z,6.24
2017-11-13T19:58:23.051Z,6.17
2017-11-13T20:00:50.496Z,6.08
2017-11-13T20:03:17.889Z,6.03
2017-11-13T20:05:45.312Z,6.00
2017-11-13T20:08:12.699Z,5.95
2017-11-13T20:10:40.100Z,5.91
2017-11-13T20:13:07.496Z,5.94
2017-11-13T20:15:35.798Z,5.89
2017-11-13T20:18:03.198Z,5.83
2017-11-13T20:20:30.598Z,5.80
2017-11-13T20:22:58.015Z,5.77
2017-11-13T20:25:25.407Z,5.76
2017-11-13T20:27:52.795Z,5.75
2017-11-13T20:30:20.204Z,5.76
2017-11-13T20:32:47.628Z,5.79
2017-11-13T20:35:15.024Z,5.81
2017-11-13T20:37:42.416Z,5.78
2017-11-13T20:40:09.833Z,5.75
2017-11-13T20:42:37.218Z,5.72
2017-11-13T20:45:04.613Z,5.67
2017-11-13T20:47:32.026Z,5.62
2017-11-13T20:49:59.418Z,5.60
2017-11-13T20:52:26.807Z,5.57
2017-11-13T20:54:54.202Z,5.53
2017-11-13T20:57:21.597Z,5.49
2017-11-13T20:59:49.002Z,5.46
2017-11-13T21:02:16.396Z,5.39
2017-11-13T21:04:43.802Z,5.34
2017-11-13T21:07:11.195Z,5.28
2017-11-13T21:09:38.594Z,5.22
2017-11-13T21:12:05.988Z,5.18
2017-11-13T21:14:33.379Z,5.12
2017-11-13T21:17:00.780Z,5.11
2017-11-13T21:19:28.170Z,5.08
2017-11-13T21:21:59.267Z,5.08
2017-11-13T21:24:26.670Z,5.10
2017-11-13T21:26:54.072Z,5.10
2017-11-13T21:29:21.476Z,5.12
2017-11-13T21:31:48.859Z,5.14
2017-11-13T21:34:16.267Z,5.16
2017-11-13T21:36:43.664Z,5.18
2017-11-13T21:39:11.079Z,5.18
2017-11-13T21:41:38.472Z,5.22
2017-11-13T21:44:05.859Z,5.25
2017-11-13T21:46:33.258Z,5.27
2017-11-13T21:49:00.658Z,5.33
2017-11-13T21:51:28.064Z,5.35
2017-11-13T21:53:55.466Z,5.39
2017-11-13T21:56:22.880Z,5.36
2017-11-13T21:58:50.287Z,5.33
2017-11-13T22:01:17.680Z,5.36
2017-11-13T22:03:45.084Z,5.36
2017-11-13T22:06:15.524Z,5.37
2017-11-13T22:08:42.928Z,5.39
2017-11-13T22:11:10.307Z,5.41
2017-11-13T22:13:37.735Z,5.34
2017-11-13T22:16:05.131Z,5.26
2017-11-13T22:18:32.527Z,5.19
2017-11-13T22:20:59.940Z,5.17
2017-11-13T22:23:27.352Z,5.12
2017-11-13T22:25:54.751Z,5.06
2017-11-13T22:28:22.152Z,4.99
2017-11-13T22:30:49.580Z,4.95
2017-11-13T22:33:16.981Z,4.93
2017-11-13T22:35:44.381Z,4.88
2017-11-13T22:38:11.795Z,4.90
2017-11-13T22:40:39.186Z,4.87
2017-11-13T22:43:06.607Z,4.88
2017-11-13T22:45:33.995Z,4.87
2017-11-13T22:48:01.415Z,4.89
2017-11-13T22:50:28.814Z,4.89
2017-11-13T22:52:56.212Z,4.88
2017-11-13T22:55:23.619Z,4.88
2017-11-13T22:57:51.034Z,4.88
2017-11-13T23:00:18.439Z,4.90
2017-11-13T23:02:45.844Z,4.86
2017-11-13T23:05:13.256Z,4.82
2017-11-13T23:07:40.655Z,4.78
2017-11-13T23:10:08.121Z,4.74
2017-11-13T23:12:35.514Z,4.71
2017-11-13T23:15:02.915Z,4.66
2017-11-13T23:17:30.318Z,4.63
2017-11-13T23:19:57.733Z,4.60
2017-11-13T23:22:25.137Z,4.60
2017-11-13T23:24:52.536Z,4.54
2017-11-13T23:27:19.924Z,4.47
2017-11-13T23:29:47.353Z,4.45
2017-11-13T23:32:14.756Z,4.45
2017-11-13T23:34:42.160Z,4.41
2017-11-13T23:37:09.558Z,4.39
2017-11-13T23:39:36.967Z,4.35
2017-11-13T23:42:04.824Z,4.32
2017-11-13T23:44:32.225Z,4.26
2017-11-13T23:46:59.630Z,4.26
2017-11-13T23:49:27.040Z,4.24
2017-11-13T23:51:54.456Z,4.21
2017-11-13T23:54:33.607Z,4.21
2017-11-13T23:57:01.011Z,4.14
2017-11-13T23:59:28.411Z,4.07
